Latest Weather Observations for Barrow Island

IDW60801

Issued at 8:02 pm WST Sunday 1 March 2015 (issued every 30 minutes, with the page automatically refreshed every 10 minutes)

About weather observations | Map of weather stations | Latest weather observations for WA | Other Formats
Station Details ID: 005094 Name: BARROW ISLAND AIRPORT Lat: -20.88 Lon: 115.41 Height: 6.4 m
Data from the previous 72 hours. | See also: Recent months at Barrow Island
Date/Time
WST
Temp
°C
App
Temp
°C
Dew
Point
Rel
Hum
%
Delta-T
°C
Wind Press
QNH
hPa
Press
MSL
hPa
Rain
since 9 am
mm
Dir
 
Spd
km/h
Gust
km/h
Spd
kts
Gust
kts
01/08:00pm 27.3 29.6 22.0 73 3.6 W 13 17 7 9 1007.0 - 0.0
01/07:30pm 27.5 29.2 22.4 73 3.5 W 17 19 9 10 1006.6 - 0.0
01/07:00pm 27.9 29.6 22.4 72 3.7 W 17 22 9 12 1006.2 - 0.0
01/06:30pm 28.4 29.4 22.2 69 4.2 W 20 26 11 14 1006.0 - 0.0
01/06:00pm 28.8 29.8 22.1 67 4.5 W 20 28 11 15 1005.6 1005.6 0.0
01/05:30pm 28.9 29.3 22.4 68 4.4 WSW 24 32 13 17 1005.6 - 0.0
01/05:00pm 29.3 29.5 22.8 68 4.4 WSW 26 35 14 19 1005.6 - 0.0
01/04:30pm 30.0 29.9 22.2 63 5.3 WSW 26 35 14 19 1005.6 - 0.0
01/04:00pm 30.4 30.9 22.6 63 5.3 WSW 24 32 13 17 1005.8 - 0.0
01/03:30pm 30.7 30.3 22.3 61 5.7 WSW 28 37 15 20 1006.0 - 0.0
01/03:00pm 31.3 30.8 21.5 56 6.6 WSW 26 35 14 19 1006.0 1006.0 0.0
01/02:30pm 30.9 30.6 21.9 58 6.1 WSW 26 35 14 19 1006.3 - 0.0
01/02:00pm 31.4 31.8 23.8 64 5.3 SW 28 39 15 21 1006.7 - 0.0
01/01:30pm 31.0 31.3 22.9 62 5.6 SW 26 33 14 18 1006.9 - 0.0
01/01:00pm 31.1 30.9 22.1 58 6.1 WSW 26 37 14 20 1007.3 - 0.0
01/12:30pm 31.4 31.7 23.0 61 5.8 WSW 26 33 14 18 1007.5 - 0.0
01/12:00pm 30.7 31.1 23.1 64 5.2 SW 26 33 14 18 1007.8 1007.8 0.0
01/11:30am 30.8 30.6 22.1 59 5.9 WSW 26 35 14 19 1008.1 - 0.0
01/11:00am 30.6 30.4 22.7 62 5.4 WSW 28 33 15 18 1008.1 - 0.0
01/10:30am 30.6 30.9 22.2 61 5.7 WSW 24 33 13 18 1008.4 - 0.0
01/10:00am 30.1 30.7 22.8 65 5.0 WSW 24 32 13 17 1008.5 - 0.0
01/09:30am 29.7 30.0 22.2 64 5.1 WSW 24 32 13 17 1008.5 - 0.0
01/09:00am 29.7 30.5 22.4 65 5.0 W 22 30 12 16 1008.5 1008.5 0.0
01/08:30am 29.2 29.7 22.7 68 4.4 W 24 32 13 17 1008.4 - 0.0
01/08:00am 29.1 29.0 22.3 66 4.6 W 26 32 14 17 1008.0 - 0.0
01/07:30am 28.5 28.6 22.5 70 4.1 W 26 32 14 17 1007.9 - 0.0
01/07:00am 27.6 28.0 22.5 74 3.5 W 24 30 13 16 1007.5 - 0.0
01/06:30am 26.5 27.7 22.1 77 3.0 W 19 22 10 12 1007.2 - 0.0
01/06:00am 26.4 27.5 22.0 77 3.0 W 19 24 10 13 1007.1 1007.1 0.0
01/05:30am 26.3 27.7 21.9 77 2.9 W 17 20 9 11 1006.7 - 0.0
01/05:00am 26.3 27.4 21.9 77 2.9 WNW 19 20 10 11 1006.5 - 0.0
01/04:30am 26.1 27.4 21.7 77 2.9 W 17 20 9 11 1006.3 - 0.0
01/04:00am 26.1 27.4 21.7 77 2.9 W 17 20 9 11 1006.3 - 0.0
01/03:30am 26.1 28.0 22.0 78 2.7 W 15 19 8 10 1006.1 - 0.0
01/03:00am 26.2 28.1 22.1 78 2.8 W 15 17 8 9 1006.0 1006.0 0.0
01/02:30am 26.3 27.9 22.2 78 2.8 W 17 22 9 12 1006.1 - 0.0
01/02:00am 26.5 27.6 21.9 76 3.1 W 19 22 10 12 1006.4 - 0.0
01/01:30am 26.7 28.1 21.9 75 3.2 W 17 20 9 11 1006.8 - 0.0
01/01:00am 26.8 27.9 22.0 75 3.2 W 19 24 10 13 1007.2 - 0.0
01/12:30am 26.8 27.9 22.0 75 3.2 W 19 24 10 13 1007.2 - 0.0
01/12:00am 27.0 28.0 22.8 78 2.9 WSW 22 28 12 15 1007.1 1007.1 0.0
 
Date/Time
WST
Temp
°C
App
Temp
°C
Dew
Point
Rel
Hum
%
Delta-T
°C
Wind Press
QNH
hPa
Press
MSL
hPa
Rain
since 9 am
mm
Dir
 
Spd
km/h
Gust
km/h
Spd
kts
Gust
kts
28/11:30pm 27.2 27.9 23.0 78 2.9 WSW 24 28 13 15 1007.2 - 0.0
28/11:00pm 27.2 28.2 22.8 77 3.0 WSW 22 28 12 15 1007.9 - 0.0
28/10:30pm 27.3 28.4 23.1 78 2.9 WSW 22 30 12 16 1008.4 - 0.0
28/10:00pm 27.3 28.0 22.9 77 3.0 SW 24 30 13 16 1008.4 - 0.0
28/09:30pm 27.6 27.9 23.0 76 3.1 WSW 26 32 14 17 1008.0 - 0.0
28/09:00pm 27.5 27.4 22.9 76 3.1 WSW 28 33 15 18 1007.6 1007.6 0.0
28/08:30pm 27.4 26.8 22.6 75 3.2 WSW 30 35 16 19 1007.1 - 0.0
28/08:00pm 27.5 26.9 22.7 75 3.3 W 30 37 16 20 1006.7 - 0.0
28/07:30pm 27.5 26.5 22.7 75 3.3 W 32 39 17 21 1006.2 - 0.0
28/07:00pm 27.6 27.3 22.5 74 3.4 W 28 39 15 21 1005.8 - 0.0
28/06:30pm 28.2 27.2 22.7 72 3.7 W 32 39 17 21 1005.5 - 0.0
28/06:00pm 28.7 27.4 22.4 68 4.3 W 33 43 18 23 1005.2 1005.2 0.0
28/05:30pm 29.6 28.4 22.6 66 4.8 W 33 43 18 23 1005.1 - 0.0
28/05:00pm 29.6 28.1 22.1 64 5.1 W 33 46 18 25 1005.1 - 0.0
28/04:30pm 30.5 29.2 22.1 61 5.7 W 32 41 17 22 1005.2 - 0.0
28/04:00pm 30.7 29.5 22.3 61 5.7 W 32 41 17 22 1005.5 - 0.0
28/03:30pm 30.9 30.0 22.2 59 5.9 W 30 39 16 21 1005.6 - 0.0
28/03:00pm 30.6 29.6 21.9 59 5.9 W 30 37 16 20 1005.9 1005.9 0.0
28/02:30pm 30.7 30.3 22.3 61 5.7 WSW 28 37 15 20 1006.2 - 0.0
28/02:00pm 31.1 30.3 22.4 60 5.9 WSW 30 39 16 21 1006.4 - 0.0
28/01:30pm 31.1 30.2 22.1 58 6.1 WSW 30 43 16 23 1006.6 - 0.0
28/01:00pm 31.3 31.4 22.6 60 5.9 WSW 26 35 14 19 1006.8 - 0.0
28/12:30pm 30.6 30.7 22.5 62 5.5 WSW 26 35 14 19 1007.1 - 0.0
28/12:00pm 30.8 31.6 22.4 61 5.7 WSW 22 30 12 16 1007.4 1007.4 0.0
28/11:30am 31.1 32.8 23.0 62 5.6 W 19 28 10 15 1007.6 - 0.0
28/11:00am 31.2 32.4 23.8 64 5.1 W 24 28 13 15 1007.7 - 0.0
28/10:30am 29.9 31.0 23.1 67 4.7 SSW 22 24 12 13 1007.9 - 0.0
28/10:00am 29.5 31.1 23.2 69 4.3 SSW 20 24 11 13 1008.1 - 0.0
28/09:30am 29.1 30.4 22.6 68 4.4 SW 20 26 11 14 1008.2 - 0.0
28/09:00am 29.1 30.9 23.3 71 4.0 SW 19 24 10 13 1007.9 1007.9 0.0
28/08:30am 28.5 29.4 22.7 71 3.9 SW 22 26 12 14 1007.9 - 0.0
28/08:00am 28.2 29.2 22.9 73 3.6 WSW 22 30 12 16 1007.8 - 0.0
28/07:30am 27.9 29.0 23.1 75 3.3 SW 22 28 12 15 1007.6 - 0.0
28/07:00am 27.3 28.6 22.7 76 3.1 WSW 20 24 11 13 1007.3 - 0.0
28/06:30am 27.1 27.9 22.5 76 3.1 WSW 22 26 12 14 1007.0 - 0.0
28/06:00am 27.2 27.9 22.2 74 3.4 SW 22 26 12 14 1006.8 1006.8 0.0
28/05:30am 27.0 28.0 22.2 75 3.2 SW 20 28 11 15 1006.7 - 0.0
28/05:00am 27.1 27.3 22.1 74 3.4 SW 24 28 13 15 1006.5 - 0.0
28/04:30am 27.2 27.9 22.2 74 3.4 SW 22 28 12 15 1006.2 - 0.0
28/04:00am 27.2 27.6 21.7 72 3.7 WSW 22 30 12 16 1006.2 - 0.0
28/03:30am 27.2 27.6 21.7 72 3.7 WSW 22 28 12 15 1006.2 - 0.0
28/03:00am 27.2 28.0 21.7 72 3.7 WSW 20 26 11 14 1006.0 1006.0 0.0
28/02:30am 27.2 28.0 21.7 72 3.7 WSW 20 26 11 14 1006.2 - 0.0
28/02:00am 27.3 28.7 22.9 77 3.0 WSW 20 28 11 15 1006.3 - 0.0
28/01:30am 27.1 28.4 22.7 77 3.0 WSW 20 26 11 14 1006.4 - 0.0
28/01:00am 27.3 28.3 22.9 77 3.0 WSW 22 28 12 15 1006.8 - 0.0
28/12:30am 27.4 27.9 22.6 75 3.2 WSW 24 30 13 16 1007.0 - 0.0
28/12:00am 27.6 28.3 22.3 73 3.6 W 22 30 12 16 1007.3 1007.3 0.0
 
Date/Time
WST
Temp
°C
App
Temp
°C
Dew
Point
Rel
Hum
%
Delta-T
°C
Wind Press
QNH
hPa
Press
MSL
hPa
Rain
since 9 am
mm
Dir
 
Spd
km/h
Gust
km/h
Spd
kts
Gust
kts
27/11:30pm 27.7 28.4 22.2 72 3.7 WSW 22 26 12 14 1007.5 - 0.0
27/11:00pm 27.7 28.7 22.2 72 3.7 W 20 26 11 14 1007.6 - 0.0
27/10:30pm 27.7 28.1 21.7 70 4.0 WSW 22 28 12 15 1007.5 - 0.0
27/10:00pm 27.8 28.1 21.6 69 4.1 W 22 28 12 15 1007.5 - 0.0
27/09:30pm 27.7 28.0 21.5 69 4.1 WSW 22 28 12 15 1007.3 - 0.0
27/09:00pm 27.8 27.8 21.6 69 4.2 WSW 24 30 13 16 1006.9 1006.9 0.0
27/08:30pm 27.6 27.7 21.9 71 3.8 WSW 24 32 13 17 1006.9 - 0.0
27/08:00pm 27.7 27.5 22.0 71 3.8 WSW 26 32 14 17 1006.4 - 0.0
27/07:30pm 27.7 27.5 22.0 71 3.8 WSW 26 32 14 17 1005.8 - 0.0
27/07:00pm 28.0 27.8 22.0 70 4.0 WSW 26 33 14 18 1005.3 - 0.0
27/06:30pm 28.3 27.5 21.6 67 4.5 WSW 28 33 15 18 1005.0 - 0.0
27/06:00pm 28.9 27.1 20.4 60 5.6 WSW 30 37 16 20 1004.8 1004.8 0.0
27/05:30pm 28.9 27.1 21.1 62 5.2 WSW 32 39 17 21 1004.5 - 0.0
27/05:00pm 30.4 28.6 21.2 58 6.2 WSW 32 39 17 21 1004.5 - 0.0
27/04:30pm 30.6 27.6 19.0 50 7.5 WSW 33 41 18 22 1004.5 - 0.0
27/04:00pm 30.3 27.6 19.6 52 7.0 WSW 33 39 18 21 1004.6 - 0.0
27/03:30pm 30.5 27.3 18.6 49 7.7 WSW 33 41 18 22 1004.9 - 0.0
27/03:00pm 30.5 28.3 20.4 54 6.7 WSW 32 39 17 21 1005.2 1005.2 0.0
27/02:30pm 30.7 28.6 20.6 54 6.7 WSW 32 39 17 21 1005.5 - 0.0
27/02:00pm 30.3 29.1 22.2 62 5.5 WSW 32 39 17 21 1005.9 - 0.0
27/01:30pm 30.1 28.9 22.3 63 5.3 WSW 32 39 17 21 1006.3 - 0.0
27/01:00pm 29.4 27.9 22.1 65 4.9 WSW 33 41 18 22 1006.7 - 0.0
27/12:30pm 29.3 27.9 22.3 66 4.7 SW 33 41 18 22 1006.8 - 0.0
27/12:00pm 29.1 27.9 22.3 66 4.6 SW 32 39 17 21 1006.9 1006.9 0.0
27/11:30am 29.6 28.1 21.8 63 5.3 SW 32 39 17 21 1007.2 - 0.0
27/11:00am 29.7 29.2 22.2 64 5.1 SW 28 35 15 19 1007.6 - 0.0
27/10:30am 29.6 29.0 21.3 61 5.6 SW 26 32 14 17 1007.8 - 0.0
27/10:00am 29.2 28.7 21.4 63 5.2 SW 26 32 14 17 1008.0 - 0.0
27/09:30am 28.8 28.4 21.6 65 4.8 SW 26 30 14 16 1008.1 - 0.0
27/09:00am 28.3 28.0 21.1 65 4.8 SW 24 32 13 17 1008.4 1008.4 0.0
27/08:30am 27.7 27.3 21.0 67 4.4 SW 24 28 13 15 1008.4 - 0.0
27/08:00am 27.6 27.4 21.2 68 4.3 SW 24 28 13 15 1008.1 - 0.0
27/07:30am 27.4 27.4 21.0 68 4.2 SW 22 26 12 14 1007.5 - 0.0
27/07:00am 27.0 26.5 20.8 69 4.1 SW 24 30 13 16 1007.0 - 0.0
27/06:30am 27.1 26.2 20.7 68 4.2 SSW 26 30 14 16 1006.7 - 0.0
27/06:00am 27.0 26.3 20.3 66 4.4 SW 24 28 13 15 1006.8 1006.8 0.0
27/05:30am 27.1 25.9 20.9 69 4.1 SW 28 32 15 17 1006.7 - 0.0
27/05:00am 26.9 25.6 20.7 69 4.1 SW 28 33 15 18 1006.4 - 0.0
27/04:30am 27.2 25.6 20.8 68 4.2 SSW 30 35 16 19 1006.1 - 0.0
27/04:00am 27.0 25.6 21.1 70 3.9 SSW 30 35 16 19 1006.0 - 0.0
27/03:30am 26.9 25.5 21.9 74 3.3 SSW 32 37 17 20 1005.9 - 0.0
27/03:00am 26.8 25.8 22.6 78 2.8 SSW 32 37 17 20 1005.8 1005.8 0.0
27/02:30am 27.1 26.2 22.9 78 2.9 SSW 32 37 17 20 1006.1 - 0.0
27/02:00am 27.2 26.3 22.8 77 3.0 SSW 32 37 17 20 1006.3 - 0.0
27/01:30am 27.0 25.7 22.4 76 3.1 SW 33 39 18 21 1006.1 - 0.0
27/01:00am 26.8 26.0 22.4 77 3.0 SW 30 33 16 18 1006.6 - 0.0
27/12:30am 26.9 26.3 22.7 78 2.8 SW 30 37 16 20 1006.7 - 0.0
27/12:00am 26.9 26.2 22.5 77 3.0 SW 30 37 16 20 1007.0 1007.0 0.0
 
Date/Time
WST
Temp
°C
App
Temp
°C
Dew
Point
Rel
Hum
%
Delta-T
°C
Wind Press
QNH
hPa
Press
MSL
hPa
Rain
since 9 am
mm
Dir
 
Spd
km/h
Gust
km/h
Spd
kts
Gust
kts
26/11:30pm 26.8 25.6 22.2 76 3.1 SW 32 37 17 20 1007.4 - 0.0
26/11:00pm 27.0 25.5 22.0 74 3.4 SW 33 41 18 22 1007.6 - 0.0
26/10:30pm 26.8 25.9 22.2 76 3.1 SW 30 37 16 20 1007.6 - 0.0
26/10:00pm 26.8 24.9 22.0 75 3.2 SW 35 43 19 23 1007.5 - 0.0
26/09:30pm 26.8 24.8 22.6 78 2.8 SW 37 44 20 24 1007.0 - 0.0
26/09:00pm 26.8 24.7 22.4 77 3.0 SW 37 44 20 24 1006.6 1006.6 0.0
26/08:30pm 26.9 24.9 22.5 77 3.0 SW 37 44 20 24 1006.3 - 0.0

Other Formats:

Comma delimited format used in spreadsheet applications
http://www.bom.gov.au/fwo/IDW60801/IDW60801.95304.axf

JavaScript Object Notation format (JSON) in row-major order
http://www.bom.gov.au/fwo/IDW60801/IDW60801.95304.json